createdAt,value
2022-09-26T00:00:13.401Z,4.40
2022-09-26T00:03:03.394Z,4.00
2022-09-26T00:05:56.238Z,4.30
2022-09-26T00:08:51.925Z,4.80
2022-09-26T00:11:43.767Z,4.37
2022-09-26T00:14:37.424Z,4.47
2022-09-26T00:17:33.878Z,4.43
2022-09-26T00:20:28.227Z,5.93
2022-09-26T00:23:20.606Z,5.23
2022-09-26T00:26:09.939Z,5.40
2022-09-26T00:28:59.175Z,5.40
2022-09-26T00:31:49.743Z,4.70
2022-09-26T00:34:38.919Z,4.43
2022-09-26T00:37:27.726Z,4.53
2022-09-26T00:40:23.574Z,4.10
2022-09-26T00:43:30.067Z,4.50
2022-09-26T00:46:29.768Z,3.20
2022-09-26T00:49:28.069Z,3.40
2022-09-26T00:52:23.076Z,4.00
2022-09-26T00:55:14.092Z,4.00
2022-09-26T00:58:13.784Z,3.57
2022-09-26T01:01:03.732Z,4.70
2022-09-26T01:03:56.815Z,3.73
2022-09-26T01:06:50.931Z,3.40
2022-09-26T01:09:42.441Z,3.90
2022-09-26T01:12:36.264Z,4.30
2022-09-26T01:15:30.132Z,4.60
2022-09-26T01:18:28.144Z,3.80
2022-09-26T01:21:38.968Z,3.50
2022-09-26T01:24:47.068Z,3.60
2022-09-26T01:27:49.705Z,4.63
2022-09-26T01:30:46.068Z,3.60
2022-09-26T01:33:55.454Z,3.80
2022-09-26T01:37:02.573Z,4.17
2022-09-26T01:39:58.181Z,4.00
2022-09-26T01:42:55.232Z,4.10
2022-09-26T01:45:54.268Z,4.03
2022-09-26T01:48:47.979Z,3.93
2022-09-26T01:51:41.295Z,3.90
2022-09-26T01:54:39.039Z,3.77
2022-09-26T01:57:33.537Z,4.03
2022-09-26T02:00:30.008Z,4.70
2022-09-26T02:03:22.423Z,4.10
2022-09-26T02:06:17.763Z,4.03
2022-09-26T02:09:13.866Z,5.40
2022-09-26T02:12:11.620Z,3.80
2022-09-26T02:15:10.302Z,4.77
2022-09-26T02:18:04.198Z,4.10
2022-09-26T02:21:00.736Z,4.23
2022-09-26T02:23:53.718Z,4.50
2022-09-26T02:26:46.122Z,4.57
2022-09-26T02:29:40.561Z,5.03
2022-09-26T02:32:31.756Z,4.27
2022-09-26T02:35:53.301Z,5.17
2022-09-26T02:38:48.348Z,3.97
2022-09-26T02:41:47.216Z,4.80
2022-09-26T02:44:48.346Z,3.93
2022-09-26T02:47:53.786Z,4.40
2022-09-26T02:50:57.830Z,4.90
2022-09-26T02:53:59.284Z,4.90
2022-09-26T02:56:56.174Z,4.80
2022-09-26T02:59:53.995Z,4.70
2022-09-26T03:02:46.720Z,4.80
2022-09-26T03:05:39.985Z,5.70
2022-09-26T03:08:32.902Z,5.03
2022-09-26T03:11:29.899Z,5.57
2022-09-26T03:14:24.535Z,4.53
2022-09-26T03:17:21.698Z,5.27
2022-09-26T03:20:16.256Z,5.40
2022-09-26T03:23:09.914Z,7.00
2022-09-26T03:26:02.290Z,5.30
2022-09-26T03:28:53.027Z,6.00
2022-09-26T03:31:48.722Z,6.13
2022-09-26T03:34:39.677Z,6.50
2022-09-26T03:37:28.595Z,6.30
2022-09-26T03:40:17.755Z,6.50
2022-09-26T03:43:17.828Z,6.87
2022-09-26T03:46:12.974Z,7.10
2022-09-26T03:49:05.875Z,7.27
2022-09-26T03:52:07.265Z,7.97
2022-09-26T03:54:57.823Z,8.13
2022-09-26T03:57:49.176Z,7.80
2022-09-26T04:00:46.313Z,7.80
2022-09-26T04:03:49.378Z,7.23
2022-09-26T04:06:53.471Z,8.50
2022-09-26T04:09:44.641Z,8.20
2022-09-26T04:12:37.996Z,8.80
2022-09-26T04:15:33.935Z,7.70
2022-09-26T04:18:30.789Z,8.37
2022-09-26T04:21:28.958Z,7.73
2022-09-26T04:24:22.541Z,7.60
2022-09-26T04:27:13.622Z,8.13
2022-09-26T04:30:14.264Z,8.17
2022-09-26T04:33:16.807Z,8.80
2022-09-26T04:36:15.918Z,7.90
2022-09-26T04:39:12.168Z,8.53
2022-09-26T04:42:02.663Z,7.70
2022-09-26T04:44:56.523Z,8.60
2022-09-26T04:47:53.021Z,9.20
2022-09-26T04:50:46.758Z,8.73
2022-09-26T04:53:40.771Z,8.90
2022-09-26T04:56:41.103Z,9.03
2022-09-26T04:59:42.190Z,8.87
2022-09-26T05:02:36.792Z,8.93
2022-09-26T05:05:29.040Z,8.10
2022-09-26T05:08:19.867Z,8.43
2022-09-26T05:11:18.207Z,9.00
2022-09-26T05:14:12.702Z,9.30
2022-09-26T05:17:06.042Z,8.95
2022-09-26T05:20:06.703Z,8.63
2022-09-26T05:23:00.126Z,9.40
2022-09-26T05:26:19.108Z,8.63
2022-09-26T05:29:24.728Z,9.27
2022-09-26T05:32:25.814Z,9.10
2022-09-26T05:35:17.333Z,8.63
2022-09-26T05:38:15.447Z,9.70
2022-09-26T05:41:06.637Z,9.37
2022-09-26T05:43:56.000Z,9.73
2022-09-26T05:46:54.504Z,8.97
2022-09-26T05:49:49.313Z,9.07
2022-09-26T05:52:42.336Z,7.97
2022-09-26T05:55:33.095Z,8.80
2022-09-26T05:58:26.727Z,8.60
2022-09-26T06:01:21.591Z,9.00
2022-09-26T06:04:16.395Z,7.80
2022-09-26T06:07:10.759Z,8.47
2022-09-26T06:10:00.838Z,7.37
2022-09-26T06:12:54.173Z,7.80
2022-09-26T06:15:45.624Z,7.50
2022-09-26T06:18:43.305Z,6.60
2022-09-26T06:21:34.794Z,6.90
2022-09-26T06:24:31.931Z,6.40
2022-09-26T06:27:28.146Z,6.10
2022-09-26T06:30:34.570Z,5.80
2022-09-26T06:33:33.565Z,5.47
2022-09-26T06:36:27.802Z,5.63
2022-09-26T06:39:35.744Z,5.23
2022-09-26T06:42:28.653Z,4.57
2022-09-26T06:45:28.561Z,5.63
2022-09-26T06:48:25.496Z,4.20
2022-09-26T06:51:15.581Z,5.00
2022-09-26T06:54:06.500Z,4.00
2022-09-26T06:57:01.824Z,4.53
2022-09-26T06:59:53.016Z,4.23
2022-09-26T07:02:56.019Z,4.10
2022-09-26T07:05:55.655Z,4.30
2022-09-26T07:09:02.261Z,3.50
2022-09-26T07:12:14.677Z,3.80
2022-09-26T07:15:13.250Z,3.53
2022-09-26T07:18:07.832Z,3.37
2022-09-26T07:21:03.726Z,3.27
2022-09-26T07:24:01.258Z,3.80
2022-09-26T07:26:56.154Z,3.20
2022-09-26T07:29:54.410Z,2.67
2022-09-26T07:33:03.351Z,2.87
2022-09-26T07:35:53.984Z,3.67
2022-09-26T07:38:47.507Z,3.43
2022-09-26T07:41:44.358Z,2.63
2022-09-26T07:48:11.800Z,3.33
2022-09-26T07:51:08.970Z,2.70
2022-09-26T07:54:07.225Z,3.97
2022-09-26T07:57:00.752Z,2.80
2022-09-26T07:59:51.120Z,3.10
2022-09-26T08:02:44.974Z,2.73
2022-09-26T08:05:39.800Z,3.77
2022-09-26T08:08:38.840Z,3.17
2022-09-26T08:11:31.061Z,3.07
2022-09-26T08:14:25.234Z,3.93
2022-09-26T08:17:16.840Z,3.00
2022-09-26T08:20:09.945Z,3.23
2022-09-26T08:23:05.203Z,2.90
2022-09-26T08:25:53.971Z,3.00
2022-09-26T08:28:43.232Z,3.00
2022-09-26T08:31:36.094Z,3.13
2022-09-26T08:34:43.683Z,3.20
2022-09-26T08:37:36.094Z,2.50
2022-09-26T08:40:33.035Z,3.17
2022-09-26T08:43:32.474Z,3.30
2022-09-26T08:46:43.544Z,2.80
2022-09-26T08:49:42.542Z,2.43
2022-09-26T08:52:34.684Z,3.57
2022-09-26T08:55:32.633Z,3.10
2022-09-26T08:58:29.304Z,3.10
2022-09-26T09:01:26.885Z,3.47
2022-09-26T09:04:23.514Z,2.80
2022-09-26T09:07:18.335Z,3.27
2022-09-26T09:10:12.297Z,3.27
2022-09-26T09:13:22.124Z,3.30
2022-09-26T09:16:20.281Z,2.83
2022-09-26T09:19:17.084Z,3.30
2022-09-26T09:22:24.689Z,4.93
2022-09-26T09:25:20.693Z,3.27
2022-09-26T09:28:32.586Z,4.00
2022-09-26T09:31:30.642Z,3.30
2022-09-26T09:34:27.735Z,3.30
2022-09-26T09:37:21.429Z,3.60
2022-09-26T09:40:23.420Z,3.97
2022-09-26T09:43:27.331Z,3.10
2022-09-26T09:46:29.964Z,4.20
2022-09-26T09:49:24.042Z,3.80
2022-09-26T09:52:24.743Z,4.27
2022-09-26T09:55:24.150Z,4.07
2022-09-26T09:58:24.625Z,3.57
2022-09-26T10:01:20.411Z,4.07
2022-09-26T10:04:28.095Z,4.73
2022-09-26T10:07:18.277Z,4.13
2022-09-26T10:10:16.237Z,4.27
2022-09-26T10:13:13.667Z,4.30
2022-09-26T10:16:11.175Z,4.67
2022-09-26T10:19:05.598Z,4.73
2022-09-26T10:22:19.712Z,4.40
2022-09-26T10:25:13.714Z,3.10
2022-09-26T10:28:06.615Z,3.67
2022-09-26T10:31:01.376Z,4.07
2022-09-26T10:34:02.895Z,2.70
2022-09-26T10:36:54.635Z,3.00
2022-09-26T10:40:15.238Z,2.80
2022-09-26T10:43:22.867Z,1.83
2022-09-26T10:46:15.499Z,2.20
2022-09-26T10:49:07.423Z,2.20
2022-09-26T10:52:03.568Z,2.13
2022-09-26T10:55:06.315Z,3.03
2022-09-26T10:57:59.062Z,2.10
2022-09-26T11:00:50.556Z,2.20
2022-09-26T11:03:51.817Z,2.50
2022-09-26T11:06:52.556Z,2.10
2022-09-26T11:09:47.774Z,2.30
2022-09-26T11:12:48.808Z,2.20
2022-09-26T11:15:42.766Z,2.87
2022-09-26T11:18:41.857Z,3.00
2022-09-26T11:21:35.815Z,3.13
2022-09-26T11:24:35.206Z,2.97
2022-09-26T11:27:35.422Z,3.00
2022-09-26T11:30:33.396Z,2.53
2022-09-26T11:33:25.957Z,2.73
2022-09-26T11:36:29.654Z,2.60
2022-09-26T11:39:49.674Z,2.40
2022-09-26T11:42:46.155Z,2.60
2022-09-26T11:45:47.631Z,1.90
2022-09-26T11:48:49.039Z,1.73
2022-09-26T11:51:50.565Z,1.47
2022-09-26T11:55:01.157Z,1.77
2022-09-26T11:58:04.044Z,1.60
2022-09-26T12:01:08.122Z,1.20
2022-09-26T12:04:19.539Z,1.10
2022-09-26T12:07:19.896Z,1.10
2022-09-26T12:10:19.266Z,1.37
2022-09-26T12:13:14.475Z,1.50
2022-09-26T12:16:16.855Z,2.03
2022-09-26T12:19:16.409Z,1.50
2022-09-26T12:22:29.506Z,1.50
2022-09-26T12:25:34.260Z,1.93
2022-09-26T12:28:45.056Z,1.60
2022-09-26T12:31:49.274Z,1.10
2022-09-26T12:34:49.027Z,0.90
2022-09-26T12:38:09.755Z,1.23
2022-09-26T12:41:15.043Z,1.93
2022-09-26T12:44:23.505Z,1.00
2022-09-26T12:47:39.817Z,1.70
2022-09-26T12:50:43.458Z,1.30
2022-09-26T12:53:49.510Z,1.33
2022-09-26T12:56:50.173Z,1.43
2022-09-26T12:59:54.519Z,1.37
2022-09-26T13:03:00.737Z,1.50
2022-09-26T13:06:03.881Z,1.50
2022-09-26T13:09:04.977Z,1.87
2022-09-26T13:12:06.291Z,2.00
2022-09-26T13:15:10.512Z,2.07
2022-09-26T13:18:03.319Z,2.07
2022-09-26T13:20:58.827Z,2.50
2022-09-26T13:23:53.777Z,2.33
2022-09-26T13:26:46.745Z,2.07
2022-09-26T13:29:45.359Z,2.17
2022-09-26T13:32:50.633Z,2.10
2022-09-26T13:35:53.469Z,2.83
2022-09-26T13:38:56.494Z,2.90
2022-09-26T13:41:50.246Z,2.60
2022-09-26T13:44:53.170Z,4.17
2022-09-26T13:47:49.668Z,3.77
2022-09-26T13:50:45.487Z,2.73
2022-09-26T13:53:38.145Z,3.80
2022-09-26T13:56:32.365Z,3.47
2022-09-26T13:59:34.356Z,2.80
2022-09-26T14:02:26.192Z,2.60
2022-09-26T14:05:39.943Z,3.77
2022-09-26T14:08:50.527Z,4.93
2022-09-26T14:11:51.616Z,2.27
2022-09-26T14:14:44.959Z,2.57
2022-09-26T14:18:00.228Z,2.23
2022-09-26T14:21:09.567Z,2.70
2022-09-26T14:24:28.589Z,2.63
2022-09-26T14:27:46.696Z,3.10
2022-09-26T14:30:46.791Z,2.73
2022-09-26T14:33:37.301Z,2.60
2022-09-26T14:36:27.411Z,3.00
2022-09-26T14:39:36.884Z,2.97
2022-09-26T14:42:27.199Z,2.33
2022-09-26T14:45:26.370Z,1.90
2022-09-26T14:48:31.198Z,2.50
2022-09-26T14:51:25.588Z,1.70
2022-09-26T14:54:23.450Z,2.10
2022-09-26T14:57:21.242Z,2.57
2022-09-26T15:00:25.132Z,2.47
2022-09-26T15:03:16.220Z,2.20
2022-09-26T15:06:08.844Z,2.40
2022-09-26T15:08:59.249Z,2.33
2022-09-26T15:11:49.896Z,2.30
2022-09-26T15:14:40.743Z,2.07
2022-09-26T15:17:33.340Z,2.90
2022-09-26T15:20:24.237Z,2.50
2022-09-26T15:23:20.850Z,2.30
2022-09-26T15:26:10.584Z,2.40
2022-09-26T15:29:00.092Z,2.83
2022-09-26T15:31:48.875Z,2.53
2022-09-26T15:34:39.568Z,3.10
2022-09-26T15:37:30.704Z,2.60
2022-09-26T15:40:22.950Z,2.40
2022-09-26T15:43:12.270Z,2.70
2022-09-26T15:46:05.981Z,2.90
2022-09-26T15:48:56.946Z,2.13
2022-09-26T15:51:46.108Z,2.67
2022-09-26T15:54:36.201Z,2.97
2022-09-26T15:57:26.836Z,3.07
2022-09-26T16:00:16.633Z,3.23
2022-09-26T16:03:19.160Z,2.57
2022-09-26T16:06:09.780Z,2.30
2022-09-26T16:09:05.896Z,2.80
2022-09-26T16:11:56.210Z,2.63
2022-09-26T16:14:48.587Z,3.10
2022-09-26T16:17:38.675Z,2.30
2022-09-26T16:20:28.869Z,2.00
2022-09-26T16:23:27.444Z,2.00
2022-09-26T16:26:24.074Z,2.47
2022-09-26T16:29:12.842Z,2.40
2022-09-26T16:32:03.296Z,2.60
2022-09-26T16:34:52.117Z,2.20
2022-09-26T16:37:41.285Z,4.87
2022-09-26T16:40:30.785Z,2.20
2022-09-26T16:43:23.968Z,1.77
2022-09-26T16:46:17.351Z,3.10
2022-09-26T16:49:08.124Z,2.00
2022-09-26T16:52:11.941Z,2.10
2022-09-26T16:55:01.860Z,2.70
2022-09-26T16:57:53.637Z,3.03
2022-09-26T17:01:00.042Z,3.00
2022-09-26T17:03:48.873Z,2.00
2022-09-26T17:06:39.028Z,2.80
2022-09-26T17:09:29.772Z,3.00
2022-09-26T17:12:19.718Z,2.17
2022-09-26T17:15:11.125Z,2.50
2022-09-26T17:18:00.863Z,2.17
2022-09-26T17:20:50.304Z,2.53
2022-09-26T17:23:41.977Z,2.37
2022-09-26T17:26:34.810Z,2.87
2022-09-26T17:29:26.116Z,2.80
2022-09-26T17:32:16.340Z,4.00
2022-09-26T17:35:08.736Z,3.40
2022-09-26T17:37:57.819Z,3.90
2022-09-26T17:40:48.150Z,4.30
2022-09-26T17:43:37.253Z,3.60
2022-09-26T17:46:26.254Z,3.87
2022-09-26T17:49:17.195Z,5.33
2022-09-26T17:52:06.462Z,5.97
2022-09-26T17:54:58.376Z,6.53
2022-09-26T17:57:48.466Z,6.60
2022-09-26T18:00:38.766Z,6.53
2022-09-26T18:03:29.407Z,6.37
2022-09-26T18:06:18.847Z,7.30
2022-09-26T18:09:13.838Z,6.07
2022-09-26T18:12:03.926Z,6.80
2022-09-26T18:14:55.224Z,5.57
2022-09-26T18:17:44.095Z,6.10
2022-09-26T18:20:37.581Z,6.17
2022-09-26T18:23:27.886Z,5.00
2022-09-26T18:26:22.991Z,5.40
2022-09-26T18:29:15.151Z,6.50
2022-09-26T18:32:06.724Z,5.77
2022-09-26T18:34:55.536Z,10.00
2022-09-26T18:37:44.434Z,5.70
2022-09-26T18:40:33.387Z,8.87
2022-09-26T18:43:23.577Z,6.73
2022-09-26T18:46:13.819Z,8.73
2022-09-26T18:49:06.189Z,6.50
2022-09-26T18:51:55.035Z,7.37
2022-09-26T18:54:44.465Z,8.70
2022-09-26T18:57:51.068Z,8.30
2022-09-26T19:00:40.919Z,8.93
2022-09-26T19:03:31.233Z,7.03
2022-09-26T19:06:23.080Z,7.50
2022-09-26T19:09:13.800Z,6.60
2022-09-26T19:12:02.807Z,7.00
2022-09-26T19:14:51.659Z,6.03
2022-09-26T19:17:40.543Z,4.90
2022-09-26T19:20:29.384Z,5.03
2022-09-26T19:23:19.589Z,5.00
2022-09-26T19:26:08.910Z,5.10
2022-09-26T19:28:58.363Z,4.60
2022-09-26T19:31:47.642Z,4.53
2022-09-26T19:34:36.532Z,4.20
2022-09-26T19:37:25.686Z,4.23
2022-09-26T19:40:16.393Z,4.23
2022-09-26T19:43:05.745Z,4.30
2022-09-26T19:45:55.786Z,5.10
2022-09-26T19:48:44.598Z,4.33
2022-09-26T19:51:33.844Z,4.30
2022-09-26T19:54:22.676Z,4.40
2022-09-26T19:57:15.398Z,4.60
2022-09-26T20:00:04.365Z,5.83
2022-09-26T20:02:53.702Z,4.50
2022-09-26T20:05:42.673Z,4.90
2022-09-26T20:08:31.731Z,5.27
2022-09-26T20:11:21.675Z,5.30
2022-09-26T20:14:26.963Z,5.50
2022-09-26T20:17:20.916Z,6.37
2022-09-26T20:20:14.808Z,6.13
2022-09-26T20:23:03.872Z,6.10
2022-09-26T20:25:53.468Z,7.07
2022-09-26T20:28:42.396Z,6.90
2022-09-26T20:31:32.600Z,6.90
2022-09-26T20:34:21.736Z,7.10
2022-09-26T20:37:11.095Z,8.30
2022-09-26T20:40:00.371Z,7.57
2022-09-26T20:42:53.076Z,7.90
2022-09-26T20:45:44.030Z,7.77
2022-09-26T20:48:35.208Z,7.57
2022-09-26T20:51:25.975Z,7.33
2022-09-26T20:54:20.260Z,8.20
2022-09-26T20:57:09.811Z,8.90
2022-09-26T20:59:58.636Z,7.53
2022-09-26T21:02:48.361Z,7.73
2022-09-26T21:05:38.656Z,7.70
2022-09-26T21:08:28.432Z,7.93
2022-09-26T21:11:17.547Z,7.60
2022-09-26T21:14:06.425Z,8.13
2022-09-26T21:16:55.939Z,8.60
2022-09-26T21:19:44.736Z,8.80
2022-09-26T21:22:36.767Z,8.67
2022-09-26T21:25:27.643Z,9.90
2022-09-26T21:28:20.653Z,8.77
2022-09-26T21:31:09.662Z,9.60
2022-09-26T21:33:59.909Z,8.53
2022-09-26T21:36:50.037Z,8.90
2022-09-26T21:39:40.557Z,9.80
2022-09-26T21:42:29.387Z,9.10
2022-09-26T21:45:20.538Z,9.50
2022-09-26T21:48:12.470Z,9.67
2022-09-26T21:51:01.698Z,9.47
2022-09-26T21:53:53.101Z,9.60
2022-09-26T21:56:49.883Z,9.80
2022-09-26T21:59:39.463Z,11.37
2022-09-26T22:02:28.450Z,11.07
2022-09-26T22:05:18.216Z,11.77
2022-09-26T22:08:07.176Z,11.97
2022-09-26T22:10:55.951Z,10.80
2022-09-26T22:13:46.119Z,12.20
2022-09-26T22:16:35.024Z,12.43
2022-09-26T22:19:23.902Z,13.03
2022-09-26T22:22:12.724Z,13.07
2022-09-26T22:25:03.966Z,12.33
2022-09-26T22:27:52.814Z,14.10
2022-09-26T22:30:42.977Z,14.00
2022-09-26T22:33:31.847Z,14.00
2022-09-26T22:36:20.622Z,15.30
2022-09-26T22:39:09.419Z,15.43
2022-09-26T22:41:58.501Z,15.30
2022-09-26T22:44:47.291Z,17.10
2022-09-26T22:47:38.129Z,17.13
2022-09-26T22:50:26.992Z,18.37
2022-09-26T22:53:16.133Z,20.60
2022-09-26T22:56:05.841Z,21.00
2022-09-26T22:58:54.802Z,24.50
2022-09-26T23:01:43.979Z,23.40
2022-09-26T23:04:47.661Z,24.90
2022-09-26T23:07:36.576Z,25.07
2022-09-26T23:10:25.455Z,27.97
2022-09-26T23:13:14.272Z,27.97
2022-09-26T23:16:06.416Z,28.70
2022-09-26T23:18:55.272Z,27.17
2022-09-26T23:21:45.482Z,26.63
2022-09-26T23:24:34.258Z,22.53
2022-09-26T23:27:23.067Z,16.67
2022-09-26T23:30:12.528Z,14.50
2022-09-26T23:33:01.310Z,12.40
2022-09-26T23:35:59.909Z,10.00
2022-09-26T23:38:50.401Z,8.40
2022-09-26T23:41:39.256Z,6.63
2022-09-26T23:44:28.128Z,6.70
2022-09-26T23:47:17.023Z,7.70
2022-09-26T23:50:06.118Z,6.53
2022-09-26T23:52:54.958Z,5.67
2022-09-26T23:55:45.163Z,6.30
2022-09-26T23:58:34.096Z,6.20
